Time;durP1;ratioP1;P1;durP2;ratioP2;P2;SDS_P1;SDS_P2;PMS_P1;PMS_P2;Temp;Humidity;BMP_temperature;BMP_pressure;BME280_temperature;BME280_humidity;BME280_pressure;Samples;Min_cycle;Max_cycle;Signal;HPM_P1;HPM_P2
2022/09/23 00:00:15;;;;;;;12.32;7.00;;;13.60;69.20;;;;;;5097291;28;20046;-65
2022/09/23 00:02:41;;;;;;;12.63;7.43;;;13.60;69.20;;;;;;5113300;27;20024;-64
2022/09/23 00:05:09;;;;;;;11.88;7.43;;;13.60;69.20;;;;;;5129367;27;20400;-65
2022/09/23 00:07:34;;;;;;;12.80;7.32;;;13.60;69.30;;;;;;5113437;28;20028;-64
2022/09/23 00:10:00;;;;;;;14.15;7.45;;;13.50;69.20;;;;;;5114769;28;20019;-65
2022/09/23 00:12:26;;;;;;;11.65;7.05;;;13.50;69.30;;;;;;5113951;28;20149;-65
2022/09/23 00:14:51;;;;;;;13.43;6.95;;;13.50;69.30;;;;;;5113052;28;20171;-65
2022/09/23 00:17:17;;;;;;;12.25;7.43;;;13.50;69.40;;;;;;5115357;28;20034;-65
2022/09/23 00:19:43;;;;;;;11.52;6.80;;;13.50;69.50;;;;;;5114611;28;20043;-65
2022/09/23 00:22:08;;;;;;;12.65;6.78;;;13.50;69.50;;;;;;5112893;28;20035;-64
2022/09/23 00:24:34;;;;;;;14.25;8.30;;;13.50;69.50;;;;;;5114363;28;20019;-64
2022/09/23 00:27:00;;;;;;;13.85;7.05;;;13.40;69.40;;;;;;5095480;28;20023;-64
2022/09/23 00:29:26;;;;;;;12.00;7.22;;;13.50;69.50;;;;;;5113809;28;20483;-65
2022/09/23 00:31:52;;;;;;;14.05;6.70;;;13.40;69.50;;;;;;5114748;28;20031;-65
2022/09/23 00:34:18;;;;;;;11.48;7.22;;;13.40;69.40;;;;;;5113210;28;20032;-65
2022/09/23 00:36:43;;;;;;;10.73;6.45;;;13.40;69.50;;;;;;5109640;28;20019;-64
2022/09/23 00:39:09;;;;;;;11.60;7.03;;;13.40;69.50;;;;;;5123208;28;20388;-64
2022/09/23 00:41:35;;;;;;;13.20;7.30;;;13.40;69.50;;;;;;5114659;28;20039;-64
2022/09/23 00:44:22;;;;;;;12.38;7.35;;;13.40;69.50;;;;;;5113991;28;20024;-65
2022/09/23 00:46:48;;;;;;;11.82;7.68;;;13.40;69.50;;;;;;5114583;28;20024;-65
2022/09/23 00:49:24;;;;;;;13.85;7.95;;;13.40;69.50;;;;;;5114625;28;20061;-64
2022/09/23 00:51:54;;;;;;;10.60;6.60;;;13.40;69.50;;;;;;5115901;28;20111;-65
2022/09/23 00:54:23;;;;;;;12.57;7.25;;;13.40;69.50;;;;;;5129482;27;20402;-65
2022/09/23 00:56:48;;;;;;;11.23;7.07;;;13.40;69.50;;;;;;5114456;28;20092;-65
2022/09/23 00:59:14;;;;;;;11.32;7.20;;;13.40;69.50;;;;;;5113273;28;20455;-64
2022/09/23 01:01:41;;;;;;;11.48;7.47;;;13.40;69.50;;;;;;5113773;28;20073;-65
2022/09/23 01:04:08;;;;;;;11.82;7.43;;;13.40;69.50;;;;;;5113772;28;20081;-64
2022/09/23 01:06:34;;;;;;;10.77;6.88;;;13.30;69.50;;;;;;5129508;27;20023;-64
2022/09/23 01:09:00;;;;;;;11.55;7.22;;;13.40;69.60;;;;;;5114283;28;20448;-64
2022/09/23 01:11:45;;;;;;;11.68;7.20;;;13.30;69.60;;;;;;5114227;28;20023;-65
2022/09/23 01:14:37;;;;;;;12.05;7.25;;;13.30;69.70;;;;;;5113388;28;20050;-64
2022/09/23 01:17:09;;;;;;;10.68;7.10;;;13.30;69.70;;;;;;5114549;28;20039;-64
2022/09/23 01:20:03;;;;;;;11.65;6.93;;;13.30;69.70;;;;;;5114124;28;20351;-64
2022/09/23 01:22:50;;;;;;;12.30;7.22;;;13.30;69.80;;;;;;5113281;28;20130;-64
2022/09/23 01:25:42;;;;;;;10.70;6.85;;;13.20;69.80;;;;;;5114139;28;20055;-64
2022/09/23 01:28:13;;;;;;;;;;;13.20;69.80;;;;;;5105085;28;20042;-65
2022/09/23 01:30:57;;;;;;;9.55;6.28;;;13.10;69.80;;;;;;5114199;28;19908;-64
2022/09/23 01:33:37;;;;;;;11.10;6.50;;;13.10;69.90;;;;;;5112733;28;20031;-64
2022/09/23 01:36:44;;;;;;;10.32;6.78;;;13.10;70.00;;;;;;5116816;28;20028;-65
2022/09/23 01:39:22;;;;;;;10.77;6.45;;;13.10;70.00;;;;;;5111181;28;20456;-65
2022/09/23 01:42:00;;;;;;;11.98;6.70;;;13.10;70.10;;;;;;5132727;27;20023;-65
2022/09/23 01:44:41;;;;;;;10.10;6.53;;;13.00;70.10;;;;;;5132647;27;20035;-64
2022/09/23 01:47:17;;;;;;;11.55;6.57;;;13.00;70.20;;;;;;5117018;28;20030;-64
2022/09/23 01:49:57;;;;;;;10.73;7.50;;;13.00;70.20;;;;;;5099548;28;20047;-64
2022/09/23 01:52:41;;;;;;;9.68;6.35;;;13.00;70.30;;;;;;5099802;28;20034;-64
2022/09/23 01:55:12;;;;;;;12.60;6.90;;;13.00;70.30;;;;;;5116446;28;20375;-64
2022/09/23 01:58:07;;;;;;;10.63;6.32;;;12.90;70.30;;;;;;5117479;27;20118;-65
2022/09/23 02:00:39;;;;;;;9.93;6.10;;;12.90;70.30;;;;;;5099281;28;20039;-65
2022/09/23 02:03:17;;;;;;;10.05;6.47;;;12.90;70.50;;;;;;5117047;28;20420;-64
2022/09/23 02:05:52;;;;;;;9.88;6.35;;;12.90;70.50;;;;;;5103435;28;20114;-64
2022/09/23 02:08:26;;;;;;;11.27;6.82;;;12.80;70.50;;;;;;5117252;28;20034;-64
2022/09/23 02:10:56;;;;;;;12.77;7.00;;;12.80;70.50;;;;;;5109893;28;20047;-64
2022/09/23 02:13:39;;;;;;;11.32;7.32;;;12.80;70.50;;;;;;5115198;27;20031;-65
2022/09/23 02:16:11;;;;;;;10.68;7.25;;;12.80;70.60;;;;;;5088155;28;20460;-65
2022/09/23 02:18:45;;;;;;;10.82;6.65;;;12.70;70.60;;;;;;5116098;28;20084;-64
2022/09/23 02:21:13;;;;;;;13.07;6.75;;;12.70;70.60;;;;;;5116082;28;20023;-64
2022/09/23 02:23:57;;;;;;;11.95;7.47;;;12.70;70.70;;;;;;5115577;27;20110;-64
2022/09/23 02:26:37;;;;;;;10.55;6.75;;;12.70;70.70;;;;;;5116250;28;20035;-64
2022/09/23 02:29:15;;;;;;;10.05;6.40;;;12.70;70.80;;;;;;5117002;28;20024;-64
2022/09/23 02:32:11;;;;;;;10.93;6.75;;;12.70;70.80;;;;;;5115811;28;20032;-64
2022/09/23 02:34:59;;;;;;;11.32;6.90;;;12.70;70.80;;;;;;5097365;28;20043;-64
2022/09/23 02:37:51;;;;;;;9.82;6.50;;;12.60;70.80;;;;;;5116658;28;20484;-64
2022/09/23 02:40:37;;;;;;;9.05;6.03;;;12.60;70.90;;;;;;5120816;27;20068;-64
2022/09/23 02:43:13;;;;;;;10.05;6.40;;;12.60;71.00;;;;;;5132075;27;20024;-64
2022/09/23 02:45:39;;;;;;;11.48;7.35;;;12.60;71.00;;;;;;5105566;28;20506;-64
2022/09/23 02:48:25;;;;;;;11.55;6.70;;;12.60;71.00;;;;;;5116543;28;20031;-64
2022/09/23 02:50:52;;;;;;;10.73;6.82;;;12.60;71.10;;;;;;5131943;27;20019;-64
2022/09/23 02:53:17;;;;;;;10.75;6.35;;;12.60;71.10;;;;;;5116088;27;20329;-64
2022/09/23 02:55:43;;;;;;;12.15;7.25;;;12.60;71.10;;;;;;5116231;28;20030;-64
2022/09/23 02:58:12;;;;;;;10.77;6.70;;;12.60;71.20;;;;;;5114636;27;20027;-64
2022/09/23 03:01:17;;;;;;;11.85;7.32;;;12.60;71.20;;;;;;5115652;28;20417;-64
2022/09/23 03:03:58;;;;;;;10.13;6.65;;;12.60;71.20;;;;;;5118135;27;20110;-64
2022/09/23 03:06:32;;;;;;;10.68;6.85;;;12.70;71.30;;;;;;5115997;28;20051;-64
2022/09/23 03:09:07;;;;;;;11.13;7.07;;;12.60;71.20;;;;;;5116221;28;20028;-64
2022/09/23 03:11:38;;;;;;;10.73;6.85;;;12.60;71.30;;;;;;5115756;28;20031;-64
2022/09/23 03:14:16;;;;;;;11.85;6.50;;;12.60;71.30;;;;;;5114688;27;20408;-64
2022/09/23 03:17:02;;;;;;;11.13;6.45;;;12.60;71.40;;;;;;5114970;28;20436;-64
2022/09/23 03:19:39;;;;;;;10.05;6.47;;;12.60;71.40;;;;;;5125194;27;20027;-64
2022/09/23 03:22:17;;;;;;;11.00;6.95;;;12.60;71.40;;;;;;5112526;28;20353;-64
2022/09/23 03:24:44;;;;;;;11.00;7.32;;;12.60;71.50;;;;;;5116020;27;20088;-64
2022/09/23 03:27:22;;;;;;;10.50;7.07;;;12.50;71.40;;;;;;5115464;28;20482;-64
2022/09/23 03:29:50;;;;;;;11.43;7.57;;;12.60;71.50;;;;;;5115568;28;20329;-64
2022/09/23 03:32:18;;;;;;;10.68;7.07;;;12.50;71.50;;;;;;5117481;27;20035;-64
2022/09/23 03:34:49;;;;;;;9.52;6.88;;;12.50;71.60;;;;;;5113961;27;20059;-64
2022/09/23 03:37:33;;;;;;;10.88;6.68;;;12.50;71.60;;;;;;5115392;27;20118;-64
2022/09/23 03:40:11;;;;;;;11.40;6.70;;;12.50;71.60;;;;;;5131377;27;20027;-64
2022/09/23 03:42:38;;;;;;;11.50;7.18;;;12.50;71.70;;;;;;5097726;28;20024;-64
2022/09/23 03:45:08;;;;;;;10.32;6.80;;;12.40;71.70;;;;;;5116898;27;20042;-64
2022/09/23 03:47:34;;;;;;;12.63;6.93;;;12.40;71.70;;;;;;5114858;28;20037;-64
2022/09/23 03:50:00;;;;;;;10.13;6.13;;;12.40;71.70;;;;;;5116936;27;20035;-65
2022/09/23 03:52:27;;;;;;;9.40;6.07;;;12.40;71.80;;;;;;5115421;28;20039;-64
2022/09/23 03:54:53;;;;;;;10.93;6.70;;;12.40;71.80;;;;;;5130626;27;20039;-64
2022/09/23 03:57:21;;;;;;;11.07;7.20;;;12.40;71.90;;;;;;5114586;28;20019;-64
2022/09/23 03:59:49;;;;;;;13.60;7.38;;;12.40;71.90;;;;;;5130962;27;20443;-64
2022/09/23 04:02:15;;;;;;;11.13;6.78;;;12.40;71.90;;;;;;5115116;28;20075;-65
2022/09/23 04:04:42;;;;;;;12.57;6.82;;;12.40;72.10;;;;;;5115827;27;20448;-64
2022/09/23 04:07:09;;;;;;;11.35;6.35;;;12.30;72.00;;;;;;5113999;28;20039;-64
2022/09/23 04:09:35;;;;;;;10.90;7.28;;;12.30;72.00;;;;;;5131552;27;20035;-64
2022/09/23 04:12:02;;;;;;;10.32;6.30;;;12.30;72.10;;;;;;5114329;28;20118;-65
2022/09/23 04:14:28;;;;;;;11.00;6.68;;;12.30;72.10;;;;;;5113857;28;20051;-64
2022/09/23 04:16:54;;;;;;;11.10;6.65;;;12.30;72.10;;;;;;5114995;28;20024;-65
2022/09/23 04:19:19;;;;;;;10.77;6.78;;;12.30;72.10;;;;;;5121071;27;20118;-64
2022/09/23 04:21:45;;;;;;;10.43;6.70;;;12.30;72.20;;;;;;5122401;28;20026;-64
2022/09/23 04:24:11;;;;;;;10.27;7.00;;;12.30;72.20;;;;;;5115503;28;20440;-65
2022/09/23 04:26:38;;;;;;;9.77;6.72;;;12.20;72.20;;;;;;5114627;28;20043;-64
2022/09/23 04:29:04;;;;;;;11.77;6.80;;;12.30;72.30;;;;;;5115077;28;20024;-65
2022/09/23 04:31:31;;;;;;;10.45;7.10;;;12.30;72.30;;;;;;5114617;28;20031;-64
2022/09/23 04:33:58;;;;;;;10.15;6.43;;;12.30;72.30;;;;;;5113542;28;20092;-65
2022/09/23 04:36:24;;;;;;;11.20;6.60;;;12.30;72.30;;;;;;5114687;28;20027;-64
2022/09/23 04:38:50;;;;;;;10.23;6.45;;;12.30;72.40;;;;;;5113091;28;20073;-65
2022/09/23 04:41:17;;;;;;;10.60;7.20;;;12.30;72.40;;;;;;5114832;28;20082;-64
2022/09/23 04:43:43;;;;;;;10.93;7.20;;;12.30;72.40;;;;;;5113217;28;20024;-64
2022/09/23 04:46:11;;;;;;;12.10;7.30;;;12.30;72.50;;;;;;5130064;28;20332;-64
2022/09/23 04:48:38;;;;;;;10.98;6.80;;;12.30;72.50;;;;;;5114788;28;20436;-65
2022/09/23 04:51:13;;;;;;;9.75;6.85;;;12.30;72.50;;;;;;5114789;28;20031;-64
2022/09/23 04:53:40;;;;;;;10.57;7.20;;;12.30;72.60;;;;;;5130028;27;20024;-64
2022/09/23 04:56:11;;;;;;;10.93;7.03;;;12.30;72.60;;;;;;5114326;28;20441;-64
2022/09/23 04:58:38;;;;;;;12.85;7.30;;;12.30;72.60;;;;;;5113774;28;20031;-64
2022/09/23 05:01:11;;;;;;;12.05;7.22;;;12.30;72.60;;;;;;5114489;28;20084;-65
2022/09/23 05:03:37;;;;;;;12.23;6.95;;;12.30;72.70;;;;;;5113038;28;20034;-65
2022/09/23 05:06:03;;;;;;;10.40;6.65;;;12.30;72.70;;;;;;5115533;28;20080;-64
2022/09/23 05:08:29;;;;;;;10.57;6.68;;;12.30;72.70;;;;;;5115010;28;20123;-64
2022/09/23 05:10:59;;;;;;;10.55;6.95;;;12.30;72.70;;;;;;5117722;27;20106;-65
2022/09/23 05:13:25;;;;;;;9.95;7.07;;;12.30;72.80;;;;;;5115143;27;20451;-64
2022/09/23 05:16:00;;;;;;;11.23;6.95;;;12.30;72.80;;;;;;5121699;27;20038;-65
2022/09/23 05:18:27;;;;;;;12.50;7.25;;;12.30;72.80;;;;;;5132146;27;20363;-64
2022/09/23 05:20:54;;;;;;;10.10;7.00;;;12.30;72.90;;;;;;5118662;27;20027;-64
2022/09/23 05:23:21;;;;;;;10.20;7.10;;;12.30;73.00;;;;;;5116471;27;20363;-64
2022/09/23 05:25:47;;;;;;;13.00;7.05;;;12.30;73.00;;;;;;5129972;27;20092;-65
2022/09/23 05:28:17;;;;;;;11.27;7.18;;;12.40;73.00;;;;;;5118568;28;20053;-65
2022/09/23 05:30:43;;;;;;;11.38;7.45;;;12.40;73.00;;;;;;5126050;27;20031;-64
2022/09/23 05:33:09;;;;;;;12.00;7.82;;;12.30;73.10;;;;;;5111253;28;20031;-64
2022/09/23 05:35:35;;;;;;;10.25;7.10;;;12.30;73.20;;;;;;5120681;27;20395;-64
2022/09/23 05:38:01;;;;;;;12.02;7.32;;;12.30;73.10;;;;;;5122376;27;20031;-65
2022/09/23 05:40:26;;;;;;;11.27;7.40;;;12.30;73.10;;;;;;5115673;28;20038;-64
2022/09/23 05:42:52;;;;;;;10.15;7.45;;;12.40;73.20;;;;;;5117696;28;20027;-64
2022/09/23 05:45:18;;;;;;;12.45;7.85;;;12.40;73.20;;;;;;5117183;28;20032;-65
2022/09/23 05:47:43;;;;;;;10.98;6.97;;;12.40;73.20;;;;;;5133955;27;20038;-65
2022/09/23 05:50:09;;;;;;;10.80;7.22;;;12.40;73.20;;;;;;5114369;27;20106;-65
2022/09/23 05:52:35;;;;;;;10.55;6.65;;;12.40;73.20;;;;;;5115573;28;20478;-63
2022/09/23 05:55:01;;;;;;;10.40;6.90;;;12.40;73.20;;;;;;5119957;27;20035;-63
2022/09/23 05:57:27;;;;;;;13.32;7.45;;;12.40;73.20;;;;;;5116564;27;20027;-63
2022/09/23 05:59:52;;;;;;;10.60;7.00;;;12.50;73.20;;;;;;5098031;28;20050;-63
2022/09/23 06:02:18;;;;;;;12.13;6.78;;;12.50;73.30;;;;;;5116558;28;20353;-63
2022/09/23 06:04:44;;;;;;;11.07;6.95;;;12.50;73.30;;;;;;5118400;27;20114;-63
2022/09/23 06:07:10;;;;;;;11.07;6.93;;;12.50;73.30;;;;;;5131858;27;20041;-63
2022/09/23 06:09:36;;;;;;;9.85;7.00;;;12.50;73.30;;;;;;5115882;28;20463;-62
2022/09/23 06:12:02;;;;;;;13.35;7.18;;;12.50;73.30;;;;;;5116517;27;20115;-63
2022/09/23 06:14:27;;;;;;;12.13;7.07;;;12.60;73.30;;;;;;5116841;27;20054;-63
2022/09/23 06:16:53;;;;;;;11.13;7.50;;;12.60;73.30;;;;;;5115023;27;20055;-62
2022/09/23 06:19:19;;;;;;;12.60;7.47;;;12.60;73.30;;;;;;5099768;28;20118;-62
2022/09/23 06:21:47;;;;;;;11.73;7.63;;;12.70;73.30;;;;;;5114109;28;20082;-62
2022/09/23 06:24:12;;;;;;;13.73;8.00;;;12.70;73.30;;;;;;5116107;27;20394;-63
2022/09/23 06:26:38;;;;;;;12.20;7.50;;;12.70;73.30;;;;;;5116628;27;20069;-63
2022/09/23 06:29:10;;;;;;;10.85;7.38;;;12.80;73.40;;;;;;5126242;27;20031;-63
2022/09/23 06:31:36;;;;;;;11.15;7.30;;;12.80;73.40;;;;;;5116263;27;20114;-63
2022/09/23 06:34:01;;;;;;;9.50;6.53;;;12.80;73.40;;;;;;5115169;28;20127;-63
2022/09/23 06:36:27;;;;;;;10.80;6.90;;;12.90;73.50;;;;;;5116051;28;20049;-63
2022/09/23 06:38:53;;;;;;;10.40;6.60;;;12.90;73.40;;;;;;5116338;27;20110;-63
2022/09/23 06:41:19;;;;;;;9.77;6.40;;;12.90;73.40;;;;;;5115587;28;20375;-63
2022/09/23 06:43:45;;;;;;;10.25;6.80;;;13.00;73.40;;;;;;5132875;27;20061;-63
2022/09/23 06:46:14;;;;;;;10.88;7.20;;;13.00;73.30;;;;;;5115708;28;20027;-63
2022/09/23 06:48:42;;;;;;;10.13;6.00;;;13.10;73.20;;;;;;5124228;27;20069;-63
2022/09/23 06:51:12;;;;;;;9.52;5.88;;;13.10;73.20;;;;;;5115124;27;20436;-63
2022/09/23 06:53:38;;;;;;;12.15;6.20;;;13.10;73.20;;;;;;5114835;28;20358;-63
2022/09/23 06:56:10;;;;;;;10.63;6.57;;;13.20;73.10;;;;;;5117996;27;20020;-63
2022/09/23 06:58:36;;;;;;;;;;;13.20;73.00;;;;;;5116966;27;20031;-63
2022/09/23 07:01:18;;;;;;;13.95;6.15;;;13.20;72.80;;;;;;5114956;27;20004;-61
2022/09/23 07:03:45;;;;;;;12.75;6.18;;;13.20;72.80;;;;;;5114790;27;20846;-61
2022/09/23 07:06:11;;;;;;;14.38;6.45;;;13.30;72.80;;;;;;5114416;28;20412;-63
2022/09/23 07:08:37;;;;;;;12.63;6.20;;;13.30;72.70;;;;;;5116591;27;20028;-63
2022/09/23 07:11:05;;;;;;;10.32;6.72;;;13.30;72.70;;;;;;5115065;28;20038;-63
2022/09/23 07:13:35;;;;;;;10.32;6.38;;;13.40;72.70;;;;;;5101074;28;20031;-63
2022/09/23 07:16:01;;;;;;;9.35;5.75;;;13.40;72.70;;;;;;5116074;28;20031;-64
2022/09/23 07:18:30;;;;;;;8.68;5.72;;;13.40;72.50;;;;;;5117549;27;20443;-63
2022/09/23 07:20:56;;;;;;;8.82;6.03;;;13.50;72.50;;;;;;5115441;28;20053;-63
2022/09/23 07:23:23;;;;;;;9.40;5.93;;;13.50;72.30;;;;;;5113402;28;20107;-63
2022/09/23 07:25:50;;;;;;;9.77;5.68;;;13.50;72.20;;;;;;5122607;27;20020;-62
2022/09/23 07:28:19;;;;;;;9.95;5.88;;;13.50;72.10;;;;;;5113166;28;20105;-62
2022/09/23 07:30:45;;;;;;;12.82;6.80;;;13.60;72.00;;;;;;5111682;27;20039;-62
2022/09/23 07:33:11;;;;;;;9.70;6.45;;;13.60;71.90;;;;;;5110675;27;20410;-61
2022/09/23 07:35:41;;;;;;;10.13;6.65;;;13.60;71.80;;;;;;5116494;27;20035;-62
2022/09/23 07:38:10;;;;;;;9.32;6.20;;;13.60;71.80;;;;;;5115224;28;20053;-62
2022/09/23 07:40:38;;;;;;;9.10;6.05;;;13.70;71.90;;;;;;5114793;28;20085;-62
2022/09/23 07:43:05;;;;;;;12.68;6.97;;;13.70;71.90;;;;;;5115524;28;20023;-62
2022/09/23 07:45:34;;;;;;;10.25;6.90;;;13.70;71.90;;;;;;5115544;28;20106;-62
2022/09/23 07:48:00;;;;;;;12.15;7.07;;;13.70;72.00;;;;;;5115488;28;20024;-62
2022/09/23 07:50:31;;;;;;;10.27;6.13;;;13.80;71.90;;;;;;5119239;27;20063;-62
2022/09/23 07:52:56;;;;;;;9.32;6.32;;;13.80;71.70;;;;;;5115401;28;20516;-62
2022/09/23 07:55:22;;;;;;;10.48;6.47;;;13.90;71.60;;;;;;5115538;28;20019;-63
2022/09/23 07:57:48;;;;;;;10.30;6.45;;;13.90;71.20;;;;;;5114346;28;20068;-63
2022/09/23 08:00:13;;;;;;;12.35;7.03;;;13.90;70.90;;;;;;5110798;28;20047;-63
2022/09/23 08:02:40;;;;;;;9.63;6.68;;;14.10;70.90;;;;;;5125456;27;20028;-63
2022/09/23 08:05:07;;;;;;;13.38;7.32;;;14.10;70.70;;;;;;5114485;27;20108;-63
2022/09/23 08:07:33;;;;;;;11.95;6.78;;;14.20;70.40;;;;;;5122583;27;20024;-63
2022/09/23 08:10:00;;;;;;;11.23;7.15;;;14.30;70.20;;;;;;5115407;28;20031;-63
2022/09/23 08:12:26;;;;;;;11.57;6.38;;;14.40;70.00;;;;;;5113954;28;20118;-63
2022/09/23 08:14:52;;;;;;;10.63;6.75;;;14.50;69.80;;;;;;5113973;28;20132;-63
2022/09/23 08:17:17;;;;;;;11.07;6.28;;;14.60;69.50;;;;;;5114000;28;20066;-63
2022/09/23 08:19:43;;;;;;;9.57;6.40;;;14.70;69.30;;;;;;5115001;28;20051;-63
2022/09/23 08:22:10;;;;;;;10.23;6.35;;;14.80;69.10;;;;;;5113728;28;20141;-63
2022/09/23 08:24:35;;;;;;;11.88;6.95;;;14.90;69.00;;;;;;5114063;28;20039;-64
2022/09/23 08:27:01;;;;;;;10.10;6.22;;;15.00;68.60;;;;;;5115086;28;20015;-64
2022/09/23 08:29:27;;;;;;;11.95;6.55;;;15.10;68.90;;;;;;5123093;28;20031;-64
2022/09/23 08:31:53;;;;;;;11.13;6.07;;;15.10;67.90;;;;;;5117384;28;20035;-64
2022/09/23 08:34:20;;;;;;;10.85;6.63;;;15.20;68.40;;;;;;5114340;28;20030;-64
2022/09/23 08:36:46;;;;;;;10.82;6.35;;;15.10;67.60;;;;;;5113039;28;20047;-64
2022/09/23 08:39:14;;;;;;;9.75;6.18;;;15.20;67.60;;;;;;5114918;28;20031;-64
2022/09/23 08:41:55;;;;;;;8.95;5.82;;;15.20;67.60;;;;;;5114707;28;20023;-64
2022/09/23 08:44:34;;;;;;;10.10;6.03;;;15.20;67.70;;;;;;5105610;28;20023;-64
2022/09/23 08:47:27;;;;;;;10.68;6.45;;;15.30;68.40;;;;;;5135009;27;20066;-64
2022/09/23 08:49:56;;;;;;;10.02;5.70;;;15.30;67.60;;;;;;5131955;27;20027;-64
2022/09/23 08:52:38;;;;;;;9.35;6.07;;;15.30;67.70;;;;;;5117044;27;20028;-64
2022/09/23 08:55:10;;;;;;;9.73;5.80;;;15.40;67.80;;;;;;5117950;28;20031;-64
2022/09/23 08:57:44;;;;;;;;;;;15.40;67.80;;;;;;5116102;27;20036;-64
2022/09/23 09:00:18;;;;;;;8.85;5.80;;;15.40;67.70;;;;;;5120681;27;19911;-64
2022/09/23 09:02:44;;;;;;;10.65;6.15;;;15.50;67.70;;;;;;5118035;27;20019;-64
2022/09/23 09:05:11;;;;;;;10.88;6.10;;;15.60;67.40;;;;;;5118137;27;20448;-64
2022/09/23 09:07:40;;;;;;;10.18;5.70;;;15.60;67.10;;;;;;5117982;28;20055;-64
2022/09/23 09:10:15;;;;;;;9.95;6.10;;;15.70;66.90;;;;;;5098996;27;20507;-64
2022/09/23 09:12:59;;;;;;;10.30;6.00;;;15.80;66.70;;;;;;5118160;28;20034;-64
2022/09/23 09:15:26;;;;;;;9.23;5.72;;;15.90;66.80;;;;;;5129970;27;20083;-64
2022/09/23 09:18:05;;;;;;;9.57;5.90;;;15.90;66.70;;;;;;5115367;27;20382;-64
2022/09/23 09:20:49;;;;;;;10.05;6.45;;;16.00;66.60;;;;;;5117856;27;20043;-64
2022/09/23 09:23:26;;;;;;;9.90;6.38;;;16.00;66.30;;;;;;5116119;27;20169;-64
2022/09/23 09:25:54;;;;;;;10.75;6.15;;;16.10;66.30;;;;;;5117470;28;20329;-64
2022/09/23 09:28:34;;;;;;;12.35;6.45;;;16.20;66.10;;;;;;5118150;27;20028;-64
2022/09/23 09:31:04;;;;;;;10.48;6.05;;;16.40;65.90;;;;;;5131514;27;20038;-64
2022/09/23 09:34:15;;;;;;;10.55;6.18;;;16.50;65.70;;;;;;5118897;27;20035;-64
2022/09/23 09:37:05;;;;;;;8.48;5.68;;;16.70;65.40;;;;;;5085724;28;20192;-65
2022/09/23 09:39:32;;;;;;;10.48;6.05;;;16.80;65.20;;;;;;5116579;27;20032;-64
2022/09/23 09:41:59;;;;;;;11.20;6.13;;;16.80;65.00;;;;;;5117458;27;20325;-64
2022/09/23 09:44:51;;;;;;;9.63;6.00;;;16.80;64.90;;;;;;5118170;27;20034;-64
2022/09/23 09:47:50;;;;;;;8.93;5.72;;;16.80;64.80;;;;;;5120036;27;20111;-64
2022/09/23 09:50:37;;;;;;;9.75;6.22;;;16.80;64.60;;;;;;5117278;27;20149;-64
2022/09/23 09:53:15;;;;;;;9.20;6.07;;;16.80;64.60;;;;;;5117216;28;20028;-64
2022/09/23 09:55:41;;;;;;;9.07;5.20;;;16.80;64.50;;;;;;5115680;28;20390;-65
2022/09/23 09:58:15;;;;;;;9.38;6.22;;;16.80;64.70;;;;;;5117164;27;20444;-64
2022/09/23 10:00:43;;;;;;;8.13;5.68;;;16.80;64.80;;;;;;5115110;27;20027;-64
2022/09/23 10:03:12;;;;;;;9.35;6.05;;;16.90;64.90;;;;;;5117306;28;20019;-63
2022/09/23 10:05:44;;;;;;;12.07;5.88;;;16.90;64.80;;;;;;5114625;27;20355;-63
2022/09/23 10:08:31;;;;;;;10.00;5.85;;;16.80;64.60;;;;;;5114566;28;20020;-64
2022/09/23 10:11:16;;;;;;;9.70;5.82;;;16.90;64.50;;;;;;5116661;27;20058;-63
2022/09/23 10:14:01;;;;;;;9.23;6.13;;;16.90;64.30;;;;;;5117350;27;20097;-63
2022/09/23 10:16:30;;;;;;;9.90;6.28;;;17.10;64.20;;;;;;5116995;27;20107;-63
2022/09/23 10:18:58;;;;;;;9.23;5.78;;;17.10;63.90;;;;;;5117079;28;20118;-63
2022/09/23 10:21:24;;;;;;;9.52;6.20;;;17.20;63.80;;;;;;5117378;27;20019;-63
2022/09/23 10:23:56;;;;;;;9.45;5.32;;;17.40;63.80;;;;;;5118437;27;20016;-63
2022/09/23 10:26:31;;;;;;;9.80;6.28;;;17.40;63.60;;;;;;5115568;27;20118;-64
2022/09/23 10:28:58;;;;;;;11.40;5.97;;;17.50;63.30;;;;;;5115340;28;20475;-64
2022/09/23 10:31:32;;;;;;;10.20;5.68;;;17.60;63.30;;;;;;5116552;28;20460;-64
2022/09/23 10:34:01;;;;;;;9.82;6.25;;;17.70;63.40;;;;;;5115335;28;20020;-64
2022/09/23 10:36:31;;;;;;;10.38;5.53;;;17.70;63.20;;;;;;5119041;27;20452;-64
2022/09/23 10:48:10;;;;;;;11.32;5.25;;;18.00;62.20;;;;;;5114683;27;20355;-64
2022/09/23 10:50:46;;;;;;;8.67;4.93;;;18.00;61.90;;;;;;5120055;27;20039;-64
2022/09/23 10:53:54;;;;;;;8.80;5.43;;;18.10;61.90;;;;;;5124171;27;20047;-64
2022/09/23 10:56:28;;;;;;;8.45;5.10;;;18.10;61.50;;;;;;5110847;27;20051;-64
2022/09/23 10:59:14;;;;;;;8.80;5.50;;;18.10;61.50;;;;;;5115634;28;20421;-64
2022/09/23 11:01:49;;;;;;;10.00;5.32;;;18.10;61.50;;;;;;5114945;28;20059;-64
2022/09/23 11:04:51;;;;;;;9.50;4.93;;;18.10;61.50;;;;;;5115582;27;20027;-64
2022/09/23 11:07:38;;;;;;;;;;;18.10;61.40;;;;;;5111144;28;20406;-64
2022/09/23 11:10:16;;;;;;;7.88;4.30;;;18.10;61.60;;;;;;5113221;27;19915;-64
2022/09/23 11:12:51;;;;;;;8.02;4.65;;;18.10;61.40;;;;;;5120268;27;20352;-64
2022/09/23 11:15:37;;;;;;;8.27;4.88;;;18.00;61.10;;;;;;5132369;27;20380;-64
2022/09/23 11:18:03;;;;;;;11.13;5.57;;;18.00;60.90;;;;;;5115009;28;20063;-64
2022/09/23 11:20:56;;;;;;;9.40;5.45;;;17.90;61.10;;;;;;5115731;28;20081;-64
2022/09/23 11:23:25;;;;;;;9.02;5.05;;;17.80;61.20;;;;;;5115199;28;20110;-64
2022/09/23 11:26:30;;;;;;;8.20;5.68;;;17.80;61.30;;;;;;5115594;28;20053;-64
2022/09/23 11:29:17;;;;;;;9.95;5.53;;;17.80;61.00;;;;;;5072714;28;20131;-64
2022/09/23 11:32:02;;;;;;;8.82;5.57;;;17.80;61.00;;;;;;5056245;28;20509;-64
2022/09/23 11:34:34;;;;;;;10.20;4.78;;;17.80;61.10;;;;;;5071796;28;20028;-64
2022/09/23 11:37:11;;;;;;;9.73;5.20;;;17.70;61.10;;;;;;5072013;28;20107;-64
2022/09/23 11:39:49;;;;;;;7.82;5.20;;;17.70;60.90;;;;;;5072573;28;20072;-64
2022/09/23 11:42:33;;;;;;;8.98;5.38;;;17.80;60.90;;;;;;5072906;28;20441;-64
2022/09/23 11:45:17;;;;;;;9.43;5.35;;;17.80;60.70;;;;;;5073039;28;20453;-64
2022/09/23 11:48:16;;;;;;;9.98;5.18;;;17.80;60.90;;;;;;5056095;28;20043;-64
2022/09/23 11:50:45;;;;;;;8.68;4.72;;;17.80;60.80;;;;;;5071104;28;20037;-64
2022/09/23 11:53:49;;;;;;;8.77;5.38;;;17.80;60.90;;;;;;5073521;28;20403;-64
2022/09/23 11:56:41;;;;;;;9.02;5.53;;;17.80;60.70;;;;;;5054311;28;20048;-64
2022/09/23 11:59:17;;;;;;;10.88;5.05;;;17.80;60.70;;;;;;5070560;28;20047;-64
2022/09/23 12:01:50;;;;;;;8.85;5.03;;;17.70;60.70;;;;;;5072941;28;20155;-64
2022/09/23 12:04:18;;;;;;;8.50;4.95;;;17.70;60.80;;;;;;5090478;28;20422;-64
2022/09/23 12:06:53;;;;;;;9.45;5.75;;;17.70;60.80;;;;;;5120099;27;20024;-64
2022/09/23 12:09:48;;;;;;;9.23;5.15;;;17.70;61.10;;;;;;5112897;28;20103;-64
2022/09/23 12:12:29;;;;;;;10.73;5.50;;;17.70;60.90;;;;;;5113533;28;20031;-63
2022/09/23 12:15:19;;;;;;;9.32;4.85;;;17.70;60.60;;;;;;5113870;28;20123;-64
2022/09/23 12:18:11;;;;;;;9.88;4.80;;;17.80;60.60;;;;;;5113413;28;20027;-64
2022/09/23 12:20:44;;;;;;;10.73;5.05;;;17.80;60.50;;;;;;5111597;28;20138;-64
2022/09/23 12:23:28;;;;;;;9.48;4.95;;;17.90;60.30;;;;;;5115210;28;20034;-64
2022/09/23 12:26:24;;;;;;;10.25;4.95;;;18.00;60.30;;;;;;5114673;28;20035;-64
2022/09/23 12:28:52;;;;;;;8.95;4.68;;;18.00;59.90;;;;;;5094832;28;20050;-64
2022/09/23 12:31:29;;;;;;;10.57;5.45;;;18.10;59.80;;;;;;5111569;28;20027;-64
2022/09/23 12:34:00;;;;;;;9.82;5.68;;;18.10;59.60;;;;;;5115010;28;20088;-64
2022/09/23 12:36:33;;;;;;;13.52;6.22;;;18.20;59.40;;;;;;5119647;28;20433;-63
2022/09/23 12:39:22;;;;;;;10.52;5.43;;;18.20;59.30;;;;;;5119994;28;20381;-64
2022/09/23 12:41:53;;;;;;;11.57;5.97;;;18.30;59.10;;;;;;5119504;28;20016;-64
2022/09/23 12:44:39;;;;;;;9.60;5.50;;;18.30;59.00;;;;;;5115069;28;20031;-64
2022/09/23 12:47:13;;;;;;;10.27;5.35;;;18.30;59.10;;;;;;5112811;28;20456;-64
2022/09/23 12:49:40;;;;;;;10.93;6.07;;;18.40;58.50;;;;;;5115932;28;20341;-64
2022/09/23 12:52:15;;;;;;;10.98;6.10;;;18.40;58.50;;;;;;5112422;28;20452;-64
2022/09/23 12:54:43;;;;;;;11.50;5.90;;;18.40;58.50;;;;;;5114241;28;20031;-64
2022/09/23 12:57:10;;;;;;;10.90;6.57;;;18.40;58.80;;;;;;5115440;28;20031;-64
2022/09/23 12:59:53;;;;;;;10.48;5.55;;;18.40;58.90;;;;;;5114652;28;20118;-64
2022/09/23 13:02:31;;;;;;;10.32;5.82;;;18.40;59.00;;;;;;5111635;28;20024;-64
2022/09/23 13:08:11;;;;;;;9.68;5.22;;;18.40;58.20;;;;;;5110447;28;20443;-64
2022/09/23 13:10:55;;;;;;;8.60;5.13;;;18.40;58.20;;;;;;5114366;28;20046;-64
2022/09/23 13:13:43;;;;;;;11.38;5.93;;;18.40;58.20;;;;;;5121625;28;20027;-64
2022/09/23 13:16:12;;;;;;;10.20;5.60;;;18.50;58.20;;;;;;5118871;28;20031;-64
2022/09/23 13:18:53;;;;;;;11.27;5.28;;;18.50;58.30;;;;;;5111417;28;20031;-64
2022/09/23 13:21:42;;;;;;;9.43;5.85;;;18.50;58.10;;;;;;5123985;28;20031;-65